Time;durP1;ratioP1;P1;durP2;ratioP2;P2;SDS_P1;SDS_P2;PMS_P1;PMS_P2;Temp;Humidity;BMP_temperature;BMP_pressure;BME280_temperature;BME280_humidity;BME280_pressure;Samples;Min_cycle;Max_cycle;Signal;HPM_P1;HPM_P2
2022/12/21 00:01:14;;;;;;;107.13;64.20;;;1.70;81.00;;;;;;4936896;29;20440;-16
2022/12/21 00:03:42;;;;;;;96.97;53.97;;;1.70;80.90;;;;;;4935787;29;20399;-17
2022/12/21 00:06:08;;;;;;;99.85;55.88;;;1.70;80.90;;;;;;4936957;29;20039;-15
2022/12/21 00:08:54;;;;;;;96.72;55.67;;;1.70;81.10;;;;;;4937117;29;20079;-17
2022/12/21 00:11:21;;;;;;;78.25;42.97;;;1.80;80.90;;;;;;4937252;29;20044;-21
2022/12/21 00:13:48;;;;;;;99.63;55.03;;;1.80;81.00;;;;;;4936779;29;20043;-12
2022/12/21 00:16:17;;;;;;;104.35;58.10;;;1.90;81.10;;;;;;4936733;29;20028;-16
2022/12/21 00:18:44;;;;;;;110.65;60.90;;;1.90;81.10;;;;;;4936773;29;20020;-14
2022/12/21 00:21:16;;;;;;;111.05;60.70;;;1.90;80.90;;;;;;4936857;29;20028;-15
2022/12/21 00:23:43;;;;;;;94.25;50.35;;;1.90;80.70;;;;;;4936876;29;20035;-15
2022/12/21 00:26:11;;;;;;;96.28;53.63;;;1.80;80.90;;;;;;4936531;29;20035;-14
2022/12/21 00:28:37;;;;;;;90.65;48.40;;;1.80;80.90;;;;;;4936714;29;20035;-15
2022/12/21 00:31:13;;;;;;;94.47;50.00;;;1.80;80.80;;;;;;4936206;29;20031;-16
2022/12/21 00:33:40;;;;;;;103.78;55.95;;;1.80;80.80;;;;;;4936548;29;20034;-16
2022/12/21 00:36:09;;;;;;;97.55;54.65;;;1.80;81.00;;;;;;4936506;29;20031;-16
2022/12/21 00:38:35;;;;;;;109.10;60.00;;;1.80;80.90;;;;;;4936662;29;20094;-17
2022/12/21 00:41:04;;;;;;;88.30;50.20;;;1.80;80.80;;;;;;4936081;29;20068;-15
2022/12/21 00:43:32;;;;;;;110.95;61.25;;;1.70;80.90;;;;;;4936324;29;20031;-14
2022/12/21 00:45:58;;;;;;;98.38;57.85;;;1.70;80.90;;;;;;4936720;29;20031;-14
2022/12/21 00:48:25;;;;;;;95.57;55.95;;;1.70;81.00;;;;;;4936268;29;20484;-16
2022/12/21 00:50:51;;;;;;;112.40;64.18;;;1.60;80.90;;;;;;4935855;29;20366;-16
2022/12/21 00:53:18;;;;;;;97.65;53.25;;;1.60;81.10;;;;;;4936262;29;20031;-15
2022/12/21 00:55:58;;;;;;;91.20;51.22;;;1.50;81.10;;;;;;4934925;29;20122;-17
2022/12/21 00:58:26;;;;;;;96.75;52.10;;;1.50;81.10;;;;;;4935965;29;20035;-17
2022/12/21 01:00:54;;;;;;;86.45;47.97;;;1.50;81.20;;;;;;4934607;29;20098;-15
2022/12/21 01:03:20;;;;;;;87.43;48.85;;;1.40;81.30;;;;;;4936010;29;20032;-17
2022/12/21 01:05:48;;;;;;;78.88;44.53;;;1.40;81.30;;;;;;4936245;29;20035;-17
2022/12/21 01:08:15;;;;;;;95.07;52.45;;;1.40;81.20;;;;;;4936166;29;20043;-16
2022/12/21 01:10:42;;;;;;;81.57;46.08;;;1.40;81.30;;;;;;4935869;29;20492;-18
2022/12/21 01:13:08;;;;;;;70.35;41.45;;;1.40;81.40;;;;;;4935639;29;20035;-17
2022/12/21 01:15:38;;;;;;;73.57;43.47;;;1.50;81.30;;;;;;4934472;29;20455;-15
2022/12/21 01:18:04;;;;;;;103.07;57.97;;;1.50;81.20;;;;;;4936202;29;20020;-16
2022/12/21 01:20:30;;;;;;;95.60;53.50;;;1.60;81.30;;;;;;4935689;29;20038;-16
2022/12/21 01:22:56;;;;;;;96.00;53.17;;;1.60;81.30;;;;;;4935105;29;20055;-16
2022/12/21 01:25:22;;;;;;;95.05;55.38;;;1.60;81.30;;;;;;4935626;29;20032;-18
2022/12/21 01:27:48;;;;;;;90.50;54.25;;;1.60;81.20;;;;;;4935416;29;20028;-17
2022/12/21 01:30:15;;;;;;;82.53;44.65;;;1.60;81.20;;;;;;4935825;29;20394;-17
2022/12/21 01:32:41;;;;;;;76.63;45.03;;;1.60;81.00;;;;;;4935456;29;20082;-18
2022/12/21 01:35:07;;;;;;;75.32;45.10;;;1.60;81.10;;;;;;4935691;29;20035;-17
2022/12/21 01:37:33;;;;;;;68.50;40.38;;;1.50;81.10;;;;;;4935448;29;20500;-17
2022/12/21 01:39:59;;;;;;;73.65;42.80;;;1.50;81.00;;;;;;4935669;29;20059;-18
2022/12/21 01:42:25;;;;;;;78.07;44.60;;;1.50;81.00;;;;;;4935505;29;20024;-17
2022/12/21 01:45:06;;;;;;;66.57;41.55;;;1.50;81.00;;;;;;4935264;29;20449;-16
2022/12/21 01:47:36;;;;;;;73.45;40.85;;;1.40;81.00;;;;;;4935247;29;20181;-15
2022/12/21 01:50:19;;;;;;;96.05;52.92;;;1.40;81.00;;;;;;4935353;29;20036;-16
2022/12/21 01:52:45;;;;;;;100.00;59.05;;;1.40;81.00;;;;;;4935275;29;20083;-17
2022/12/21 01:55:11;;;;;;;106.88;59.22;;;1.30;80.90;;;;;;4935122;29;20032;-14
2022/12/21 01:57:37;;;;;;;91.28;51.60;;;1.20;81.00;;;;;;4935087;29;20031;-14
2022/12/21 02:00:04;;;;;;;82.40;46.35;;;1.20;81.10;;;;;;4935293;29;20036;-15
2022/12/21 02:02:44;;;;;;;79.75;45.30;;;1.10;81.10;;;;;;4935172;29;20020;-15
2022/12/21 02:05:33;;;;;;;104.18;59.50;;;1.10;81.10;;;;;;4935514;29;20079;-15
2022/12/21 02:08:01;;;;;;;70.22;40.85;;;1.10;81.30;;;;;;4934978;29;20174;-14
2022/12/21 02:10:27;;;;;;;77.20;45.83;;;1.10;81.30;;;;;;4935265;29;20060;-16
2022/12/21 02:13:02;;;;;;;101.70;58.05;;;1.10;81.40;;;;;;4933520;29;20059;-17
2022/12/21 02:16:00;;;;;;;93.25;50.63;;;1.00;81.30;;;;;;4935142;29;20032;-14
2022/12/21 02:18:58;;;;;;;79.32;44.22;;;0.90;81.30;;;;;;4933872;29;20086;-16
2022/12/21 02:21:27;;;;;;;72.85;41.80;;;0.90;81.40;;;;;;4934874;29;20032;-14
2022/12/21 02:24:14;;;;;;;87.18;48.65;;;0.90;81.50;;;;;;4934981;29;20027;-15
2022/12/21 02:26:52;;;;;;;84.82;49.15;;;0.90;81.60;;;;;;4934922;29;20038;-18
2022/12/21 02:29:45;;;;;;;87.30;51.88;;;0.90;81.60;;;;;;4935300;29;20032;-17
2022/12/21 02:32:23;;;;;;;101.00;57.85;;;0.90;81.50;;;;;;4934905;29;20444;-18
2022/12/21 02:35:07;;;;;;;91.60;50.40;;;0.90;81.50;;;;;;4934746;29;20535;-15
2022/12/21 02:37:44;;;;;;;;;;;0.80;81.60;;;;;;4935251;29;20031;-16
2022/12/21 02:40:36;;;;;;;92.55;51.05;;;0.80;81.80;;;;;;4933678;29;19907;-16
2022/12/21 02:46:34;;;;;;;99.80;54.72;;;0.90;81.80;;;;;;4935201;29;20047;-17
2022/12/21 02:49:14;;;;;;;102.88;55.40;;;0.90;81.80;;;;;;4934189;29;20403;-18
2022/12/21 02:51:47;;;;;;;107.28;61.72;;;0.90;81.90;;;;;;4934655;29;20507;-17
2022/12/21 02:54:14;;;;;;;100.78;56.38;;;0.90;82.00;;;;;;4934804;29;20060;-15
2022/12/21 02:56:40;;;;;;;115.28;64.15;;;0.90;81.80;;;;;;4938091;29;20038;-19
2022/12/21 02:59:08;;;;;;;110.32;62.28;;;0.90;81.80;;;;;;4938133;29;20559;-17
2022/12/21 03:01:51;;;;;;;110.13;63.20;;;0.90;82.00;;;;;;4938492;29;20027;-17
2022/12/21 03:04:44;;;;;;;105.25;60.00;;;0.90;81.80;;;;;;4938204;29;20364;-16
2022/12/21 03:07:31;;;;;;;91.20;51.63;;;1.00;82.00;;;;;;4937993;29;20472;-16
2022/12/21 03:10:09;;;;;;;106.40;63.30;;;1.00;82.30;;;;;;4938054;29;20103;-17
2022/12/21 03:13:16;;;;;;;105.97;60.90;;;1.10;82.20;;;;;;4936473;29;20046;-18
2022/12/21 03:16:02;;;;;;;114.47;64.30;;;1.20;82.10;;;;;;4938325;29;20027;-13
2022/12/21 03:18:33;;;;;;;111.70;60.78;;;1.30;82.20;;;;;;4937897;29;20054;-15
2022/12/21 03:21:10;;;;;;;108.32;63.92;;;1.30;82.40;;;;;;4937913;29;20027;-17
2022/12/21 03:24:03;;;;;;;95.82;55.28;;;1.30;82.20;;;;;;4937508;29;20051;-15
2022/12/21 03:26:45;;;;;;;102.25;54.63;;;1.40;82.30;;;;;;4930663;29;20497;-17
2022/12/21 03:29:16;;;;;;;88.45;51.05;;;1.40;82.50;;;;;;4938106;29;20095;-17
2022/12/21 03:31:49;;;;;;;102.40;58.13;;;1.50;82.50;;;;;;4937984;29;20091;-18
2022/12/21 03:34:32;;;;;;;92.88;52.75;;;1.50;82.50;;;;;;4938327;29;20024;-18
2022/12/21 03:37:04;;;;;;;110.72;61.92;;;1.60;82.40;;;;;;4937750;29;20087;-17
2022/12/21 03:39:31;;;;;;;100.07;56.70;;;1.70;82.40;;;;;;4937696;29;20032;-18
2022/12/21 03:42:05;;;;;;;87.82;49.13;;;1.70;82.50;;;;;;4937350;29;20500;-16
2022/12/21 03:44:41;;;;;;;76.95;46.72;;;1.80;82.40;;;;;;4937706;29;20031;-18
2022/12/21 03:47:13;;;;;;;97.78;54.90;;;1.90;82.30;;;;;;4937753;29;20372;-16
2022/12/21 03:49:47;;;;;;;73.50;44.20;;;1.90;82.40;;;;;;4937371;29;20054;-18
2022/12/21 03:52:17;;;;;;;64.47;38.97;;;2.00;82.40;;;;;;4937378;29;20524;-17
2022/12/21 03:55:01;;;;;;;88.28;51.53;;;2.10;82.30;;;;;;4937201;29;20031;-15
2022/12/21 03:57:28;;;;;;;91.50;50.28;;;2.10;82.20;;;;;;4937141;29;20039;-13
2022/12/21 03:59:58;;;;;;;80.70;46.75;;;2.20;82.30;;;;;;4937075;29;20123;-14
2022/12/21 04:02:36;;;;;;;68.25;41.65;;;2.20;82.10;;;;;;4937173;29;20568;-12
2022/12/21 04:05:15;;;;;;;86.13;49.75;;;2.20;82.10;;;;;;4937220;29;20039;-17
2022/12/21 04:07:43;;;;;;;104.55;55.60;;;2.30;82.10;;;;;;4936491;29;20055;-17
2022/12/21 04:10:15;;;;;;;95.25;53.50;;;2.30;82.20;;;;;;4937401;29;20028;-16
2022/12/21 04:12:41;;;;;;;93.60;52.85;;;2.40;81.90;;;;;;4936865;29;20067;-16
2022/12/21 04:15:10;;;;;;;96.68;52.67;;;2.40;81.90;;;;;;4936660;29;20506;-16
2022/12/21 04:17:37;;;;;;;95.78;53.60;;;2.40;81.90;;;;;;4936747;29;20503;-17
2022/12/21 04:20:06;;;;;;;88.68;49.33;;;2.40;81.80;;;;;;4936910;29;20078;-16
2022/12/21 04:28:08;;;;;;;88.65;51.67;;;2.50;81.70;;;;;;4936950;29;20098;-12
2022/12/21 04:30:36;;;;;;;96.55;56.55;;;2.50;81.60;;;;;;4936600;29;20114;-15
2022/12/21 04:33:03;;;;;;;96.57;55.10;;;2.50;81.50;;;;;;4936331;29;20051;-14
2022/12/21 04:35:28;;;;;;;99.93;56.53;;;2.50;81.50;;;;;;4936787;29;20036;-16
2022/12/21 04:37:54;;;;;;;93.85;56.55;;;2.50;81.60;;;;;;4936695;29;20526;-16
2022/12/21 04:40:20;;;;;;;74.05;43.60;;;2.50;81.60;;;;;;4936598;29;20114;-17
2022/12/21 04:42:46;;;;;;;86.78;49.85;;;2.60;81.70;;;;;;4936189;29;20028;-17
2022/12/21 04:45:12;;;;;;;68.70;41.22;;;2.60;81.70;;;;;;4934989;29;20124;-15
2022/12/21 04:47:38;;;;;;;86.43;50.63;;;2.60;81.70;;;;;;4936713;29;20024;-15
2022/12/21 04:50:04;;;;;;;83.03;49.50;;;2.60;81.80;;;;;;4936303;29;20046;-14
2022/12/21 04:52:31;;;;;;;66.60;39.28;;;2.70;81.80;;;;;;4936210;29;20090;-15
2022/12/21 04:54:57;;;;;;;55.50;35.92;;;2.80;81.80;;;;;;4935910;29;20122;-14
2022/12/21 04:57:23;;;;;;;91.95;54.47;;;2.80;81.70;;;;;;4935104;29;20117;-15
2022/12/21 04:59:49;;;;;;;96.07;56.35;;;2.80;81.70;;;;;;4934840;29;20124;-16
2022/12/21 05:02:15;;;;;;;87.85;48.85;;;2.90;81.60;;;;;;4936046;29;20239;-14
2022/12/21 05:04:41;;;;;;;60.97;36.40;;;2.90;81.50;;;;;;4936265;29;20028;-17
2022/12/21 05:07:07;;;;;;;70.35;39.88;;;2.90;81.50;;;;;;4935965;29;20032;-13
2022/12/21 05:09:33;;;;;;;58.45;34.70;;;2.90;81.50;;;;;;4936090;29;20024;-16
2022/12/21 05:11:59;;;;;;;84.78;49.72;;;2.90;81.50;;;;;;4935603;29;20032;-15
2022/12/21 05:14:25;;;;;;;69.80;40.90;;;3.00;81.70;;;;;;4935810;29;20094;-15
2022/12/21 05:16:51;;;;;;;79.13;43.92;;;3.00;81.50;;;;;;4935405;29;20039;-16
2022/12/21 05:19:18;;;;;;;82.15;47.13;;;3.00;81.50;;;;;;4934542;29;20027;-13
2022/12/21 05:21:44;;;;;;;83.82;48.42;;;3.00;81.40;;;;;;4935558;29;20056;-16
2022/12/21 05:24:10;;;;;;;78.85;46.30;;;3.00;81.20;;;;;;4935622;29;20027;-14
2022/12/21 05:26:36;;;;;;;61.90;37.78;;;3.00;81.20;;;;;;4934264;29;20020;-15
2022/12/21 05:29:02;;;;;;;74.00;39.53;;;3.00;81.00;;;;;;4935300;29;20027;-15
2022/12/21 05:31:29;;;;;;;73.07;41.10;;;3.00;81.10;;;;;;4935978;29;20032;-14
2022/12/21 05:33:55;;;;;;;69.53;39.28;;;3.00;81.10;;;;;;4934255;29;20099;-14
2022/12/21 05:36:21;;;;;;;73.60;42.67;;;3.00;81.10;;;;;;4935689;29;20388;-13
2022/12/21 05:38:47;;;;;;;73.65;41.78;;;3.00;81.10;;;;;;4933990;29;20028;-15
2022/12/21 05:41:16;;;;;;;54.78;30.67;;;3.00;81.10;;;;;;4936381;29;20083;-13
2022/12/21 05:43:42;;;;;;;66.43;38.20;;;3.00;81.10;;;;;;4935770;29;20055;-13
2022/12/21 05:46:10;;;;;;;65.75;38.05;;;3.00;81.50;;;;;;4935741;29;20077;-15
2022/12/21 05:48:37;;;;;;;75.22;44.33;;;3.10;81.50;;;;;;4935580;29;20075;-14
2022/12/21 05:51:11;;;;;;;77.15;46.67;;;3.10;81.50;;;;;;4935040;29;20437;-14
2022/12/21 05:53:39;;;;;;;;;;;3.20;81.30;;;;;;4935989;29;20067;-15
2022/12/21 05:56:06;;;;;;;79.32;45.35;;;3.20;81.30;;;;;;4935697;28;19962;-17
2022/12/21 05:58:32;;;;;;;77.13;44.08;;;3.20;81.20;;;;;;4935164;29;20024;-15
2022/12/21 06:01:02;;;;;;;74.38;45.75;;;3.10;81.20;;;;;;4935130;29;20452;-17
2022/12/21 06:03:28;;;;;;;69.32;40.50;;;3.10;81.10;;;;;;4935541;29;20043;-15
2022/12/21 06:06:03;;;;;;;68.70;38.75;;;3.20;81.20;;;;;;4934351;29;20024;-16
2022/12/21 06:08:31;;;;;;;67.65;37.92;;;3.20;81.10;;;;;;4935207;29;20476;-18
2022/12/21 06:11:01;;;;;;;63.83;37.60;;;3.20;81.00;;;;;;4934913;29;20439;-17
2022/12/21 06:13:27;;;;;;;65.35;37.40;;;3.20;81.00;;;;;;4935077;29;20114;-17
2022/12/21 06:15:53;;;;;;;72.82;39.67;;;3.20;81.00;;;;;;4935027;29;20515;-15
2022/12/21 06:18:20;;;;;;;66.68;37.50;;;3.20;81.00;;;;;;4935429;29;20027;-17
2022/12/21 06:20:51;;;;;;;72.05;37.22;;;3.20;81.00;;;;;;4935520;29;20031;-16
2022/12/21 06:23:18;;;;;;;60.58;32.15;;;3.20;81.00;;;;;;4935078;29;20079;-17
2022/12/21 06:25:43;;;;;;;55.97;32.25;;;3.20;81.00;;;;;;4935345;29;20035;-17
2022/12/21 06:28:09;;;;;;;59.40;32.78;;;3.20;80.90;;;;;;4935149;29;20400;-17
2022/12/21 06:30:35;;;;;;;60.50;32.45;;;3.20;81.00;;;;;;4935454;29;20423;-18
2022/12/21 06:33:01;;;;;;;47.53;27.58;;;3.20;81.00;;;;;;4938902;29;20491;-17
2022/12/21 06:35:28;;;;;;;55.13;30.98;;;3.20;81.00;;;;;;4938665;29;20027;-17
2022/12/21 06:37:53;;;;;;;49.10;26.27;;;3.20;81.10;;;;;;4937421;29;20035;-17
2022/12/21 06:40:20;;;;;;;45.83;26.60;;;3.30;81.20;;;;;;4938924;29;20159;-16
2022/12/21 06:42:46;;;;;;;45.65;27.00;;;3.30;81.10;;;;;;4938425;29;20024;-18
2022/12/21 06:45:12;;;;;;;50.30;29.15;;;3.30;81.00;;;;;;4938480;29;20552;-17
2022/12/21 06:47:38;;;;;;;48.03;27.60;;;3.30;81.10;;;;;;4938716;29;20175;-17
2022/12/21 06:50:05;;;;;;;52.63;28.52;;;3.30;81.10;;;;;;4938497;29;20028;-18
2022/12/21 06:52:33;;;;;;;51.80;28.52;;;3.40;81.00;;;;;;4938438;29;20031;-17
2022/12/21 06:54:58;;;;;;;44.35;26.38;;;3.40;80.90;;;;;;4938108;29;20039;-17
2022/12/21 06:57:24;;;;;;;46.65;25.67;;;3.40;80.80;;;;;;4938231;29;20034;-17
2022/12/21 06:59:50;;;;;;;45.80;26.05;;;3.30;80.70;;;;;;4938177;29;20110;-18
2022/12/21 07:02:17;;;;;;;40.53;22.80;;;3.30;80.70;;;;;;4938192;29;20059;-17
2022/12/21 07:04:42;;;;;;;43.33;22.67;;;3.30;80.70;;;;;;4938751;29;20032;-17
2022/12/21 07:07:08;;;;;;;43.80;22.08;;;3.30;80.60;;;;;;4938042;29;20046;-17
2022/12/21 07:09:35;;;;;;;41.15;21.63;;;3.20;80.70;;;;;;4938118;29;20318;-18
2022/12/21 07:12:00;;;;;;;38.05;21.65;;;3.20;80.70;;;;;;4936802;29;20058;-17
2022/12/21 07:14:26;;;;;;;38.05;21.95;;;3.20;80.80;;;;;;4937187;29;20387;-19
2022/12/21 07:16:52;;;;;;;43.78;22.17;;;3.20;80.90;;;;;;4937681;29;20102;-17
2022/12/21 07:19:18;;;;;;;42.22;23.60;;;3.20;80.90;;;;;;4937958;29;20130;-17
2022/12/21 07:21:44;;;;;;;72.30;39.33;;;3.30;80.90;;;;;;4937621;29;20132;-15
2022/12/21 07:24:10;;;;;;;59.72;28.25;;;3.30;80.90;;;;;;4938144;29;20031;-17
2022/12/21 07:26:36;;;;;;;43.38;23.73;;;3.30;80.80;;;;;;4937571;29;20083;-17
2022/12/21 07:29:02;;;;;;;43.95;22.85;;;3.30;80.90;;;;;;4937770;29;20027;-16
2022/12/21 07:31:28;;;;;;;44.20;23.23;;;3.30;80.80;;;;;;4937592;29;20428;-17
2022/12/21 07:33:54;;;;;;;42.58;23.90;;;3.30;80.80;;;;;;4937687;29;20027;-18
2022/12/21 07:36:21;;;;;;;56.65;29.38;;;3.30;80.80;;;;;;4937624;29;20019;-16
2022/12/21 07:38:47;;;;;;;46.22;25.98;;;3.30;80.70;;;;;;4937530;29;20087;-16
2022/12/21 07:41:15;;;;;;;42.83;22.45;;;3.30;80.70;;;;;;4937610;29;20020;-13
2022/12/21 07:43:41;;;;;;;44.78;22.27;;;3.30;80.90;;;;;;4937779;29;20564;-14
2022/12/21 07:46:07;;;;;;;37.50;18.92;;;3.40;81.00;;;;;;4937398;29;20035;-15
2022/12/21 07:48:34;;;;;;;36.17;19.40;;;3.40;81.00;;;;;;4937425;29;20063;-17
2022/12/21 07:51:00;;;;;;;40.17;22.05;;;3.50;81.00;;;;;;4937025;29;20035;-16
2022/12/21 07:53:26;;;;;;;41.58;21.35;;;3.60;80.80;;;;;;4937827;29;20030;-14
2022/12/21 07:55:52;;;;;;;27.95;16.73;;;3.60;80.70;;;;;;4937495;29;20383;-16
2022/12/21 07:58:18;;;;;;;38.28;19.77;;;3.60;80.70;;;;;;4937369;29;20395;-15
2022/12/21 08:00:45;;;;;;;40.92;23.10;;;3.70;80.80;;;;;;4937262;29;20488;-15
2022/12/21 08:03:11;;;;;;;40.88;22.10;;;3.80;80.80;;;;;;4937252;29;20036;-15
2022/12/21 08:05:37;;;;;;;37.10;19.63;;;3.90;80.50;;;;;;4937059;29;20032;-13
2022/12/21 08:08:03;;;;;;;44.47;23.98;;;3.90;80.50;;;;;;4937391;29;20035;-15
2022/12/21 08:10:29;;;;;;;75.30;45.58;;;3.90;80.50;;;;;;4937440;29;20510;-16
2022/12/21 08:12:55;;;;;;;54.50;30.95;;;4.00;80.30;;;;;;4936619;29;20043;-15
2022/12/21 08:15:21;;;;;;;69.93;38.28;;;4.00;80.20;;;;;;4937212;29;20039;-14
2022/12/21 08:17:48;;;;;;;45.70;27.25;;;4.00;80.10;;;;;;4937073;29;20131;-16
2022/12/21 08:20:14;;;;;;;45.00;22.77;;;4.10;80.00;;;;;;4935602;29;20055;-16
2022/12/21 08:22:40;;;;;;;43.85;22.48;;;4.10;80.00;;;;;;4936665;29;20086;-15
2022/12/21 08:25:06;;;;;;;43.17;23.25;;;4.00;79.90;;;;;;4936398;29;20031;-17
2022/12/21 08:27:32;;;;;;;39.33;22.33;;;4.10;79.80;;;;;;4935326;29;20507;-14
2022/12/21 08:29:58;;;;;;;37.53;21.27;;;4.00;79.90;;;;;;4936579;29;20041;-16
2022/12/21 08:32:23;;;;;;;35.25;21.25;;;4.10;79.90;;;;;;4936444;29;20037;-14
2022/12/21 08:34:49;;;;;;;41.88;25.15;;;4.10;80.10;;;;;;4936785;29;20066;-13
2022/12/21 08:37:15;;;;;;;38.35;21.20;;;4.20;80.00;;;;;;4936308;29;20036;-15
2022/12/21 08:39:41;;;;;;;46.33;27.00;;;4.20;79.90;;;;;;4936404;29;20031;-14
2022/12/21 08:42:06;;;;;;;38.80;22.45;;;4.30;79.80;;;;;;4936297;29;20083;-14
2022/12/21 08:44:32;;;;;;;45.00;25.05;;;4.30;79.80;;;;;;4936293;29;20032;-14
2022/12/21 08:46:58;;;;;;;42.67;22.48;;;4.40;79.90;;;;;;4936136;29;20031;-14
2022/12/21 08:49:24;;;;;;;38.30;22.10;;;4.30;79.80;;;;;;4936472;29;20032;-15
2022/12/21 08:51:50;;;;;;;40.50;21.38;;;4.40;79.70;;;;;;4936372;29;20040;-13
2022/12/21 08:54:16;;;;;;;43.00;23.45;;;4.40;79.60;;;;;;4936079;29;20492;-13
2022/12/21 08:56:41;;;;;;;38.88;22.27;;;4.40;79.60;;;;;;4935968;29;20050;-13
2022/12/21 08:59:08;;;;;;;39.25;21.85;;;4.40;79.60;;;;;;4935883;29;20028;-13
2022/12/21 09:01:35;;;;;;;36.78;20.88;;;4.40;79.70;;;;;;4936334;29;20052;-13
2022/12/21 09:04:02;;;;;;;38.63;22.35;;;4.50;79.70;;;;;;4936190;29;20028;-15
2022/12/21 09:06:29;;;;;;;47.20;23.00;;;4.50;79.70;;;;;;4935961;29;20023;-17
2022/12/21 09:08:56;;;;;;;39.28;22.13;;;4.60;79.60;;;;;;4935968;29;20130;-14
2022/12/21 09:11:24;;;;;;;50.60;26.10;;;4.60;79.60;;;;;;4935742;29;20042;-13
2022/12/21 09:13:50;;;;;;;45.63;24.67;;;4.70;79.50;;;;;;4935788;29;20031;-16
2022/12/21 09:16:19;;;;;;;47.15;24.80;;;4.70;79.50;;;;;;4936019;29;20039;-15
2022/12/21 09:18:45;;;;;;;41.88;22.17;;;4.80;79.40;;;;;;4936455;29;20023;-13
2022/12/21 09:21:13;;;;;;;33.55;18.95;;;4.80;79.30;;;;;;4935691;29;20515;-16
2022/12/21 09:23:39;;;;;;;42.58;24.00;;;4.80;79.40;;;;;;4935629;29;20134;-15
2022/12/21 09:26:07;;;;;;;45.80;26.65;;;4.90;79.30;;;;;;4935558;29;20504;-13
2022/12/21 09:28:34;;;;;;;40.97;23.52;;;4.90;79.30;;;;;;4935816;29;20046;-13
2022/12/21 09:31:12;;;;;;;50.90;27.25;;;5.00;79.10;;;;;;4935497;29;20034;-16
2022/12/21 09:33:39;;;;;;;50.05;25.08;;;5.10;79.00;;;;;;4935544;29;20488;-18
2022/12/21 09:36:06;;;;;;;44.85;24.67;;;5.10;79.00;;;;;;4935824;29;20046;-17
2022/12/21 09:38:33;;;;;;;38.47;22.60;;;5.10;78.90;;;;;;4935744;29;20118;-18
2022/12/21 09:41:05;;;;;;;42.78;24.45;;;5.20;78.90;;;;;;4934001;29;20028;-18
2022/12/21 09:43:52;;;;;;;40.47;22.33;;;5.30;78.80;;;;;;4935504;29;20079;-15
2022/12/21 09:46:18;;;;;;;42.88;23.75;;;5.30;78.70;;;;;;4935344;29;20498;-17
2022/12/21 09:48:47;;;;;;;41.90;23.10;;;5.40;78.70;;;;;;4935914;29;20045;-18
2022/12/21 09:51:21;;;;;;;39.35;23.17;;;5.40;78.60;;;;;;4935249;29;20044;-17
2022/12/21 09:54:11;;;;;;;54.00;28.25;;;5.40;78.60;;;;;;4935340;29;20040;-15
2022/12/21 09:56:40;;;;;;;49.50;25.13;;;5.50;78.40;;;;;;4935219;29;20031;-16
2022/12/21 09:59:15;;;;;;;48.95;25.65;;;5.50;78.30;;;;;;4935433;29;20031;-16
2022/12/21 10:01:58;;;;;;;43.75;22.63;;;5.60;78.40;;;;;;4935681;29;20027;-16
2022/12/21 10:04:55;;;;;;;53.72;26.27;;;5.60;78.30;;;;;;4936984;29;20027;-14
2022/12/21 10:07:38;;;;;;;47.38;24.40;;;5.70;78.30;;;;;;4939525;29;20596;-15
2022/12/21 10:10:21;;;;;;;54.88;30.92;;;5.80;78.10;;;;;;4939431;29;20032;-15
2022/12/21 10:13:04;;;;;;;53.10;29.50;;;5.90;78.10;;;;;;4939109;29;20031;-16
2022/12/21 10:15:51;;;;;;;53.47;29.17;;;5.90;77.90;;;;;;4939135;29;20111;-18
2022/12/21 10:18:37;;;;;;;41.30;23.25;;;5.90;77.70;;;;;;4939390;29;20055;-17
2022/12/21 10:21:28;;;;;;;46.78;26.15;;;5.90;77.80;;;;;;4939520;29;20063;-15
2022/12/21 10:23:56;;;;;;;62.88;35.20;;;5.90;77.90;;;;;;4939273;29;20564;-17
2022/12/21 10:26:26;;;;;;;57.20;29.80;;;6.10;77.60;;;;;;4939046;29;20130;-14
2022/12/21 10:29:03;;;;;;;61.45;35.53;;;6.10;77.50;;;;;;4938623;29;20031;-14
2022/12/21 10:31:42;;;;;;;68.60;39.13;;;6.10;77.40;;;;;;4939376;29;20039;-14
2022/12/21 10:34:35;;;;;;;70.82;37.15;;;6.20;77.40;;;;;;4939063;29;20468;-17
2022/12/21 10:37:09;;;;;;;65.35;36.95;;;6.20;77.40;;;;;;4932292;29;20035;-16
2022/12/21 10:39:35;;;;;;;74.03;39.63;;;6.30;77.20;;;;;;4938714;29;20059;-17
2022/12/21 10:42:07;;;;;;;67.88;37.47;;;6.20;77.10;;;;;;4939033;29;20058;-15
2022/12/21 10:44:40;;;;;;;66.93;37.53;;;6.20;77.10;;;;;;4938770;29;20039;-16
2022/12/21 10:47:17;;;;;;;66.75;35.67;;;6.20;77.10;;;;;;4938692;29;20035;-17
2022/12/21 10:50:06;;;;;;;59.45;32.67;;;6.20;77.10;;;;;;4938829;29;20055;-15
2022/12/21 10:52:40;;;;;;;55.95;30.48;;;6.20;77.20;;;;;;4938744;29;20028;-17
2022/12/21 10:55:26;;;;;;;53.15;28.65;;;6.20;77.30;;;;;;4938288;29;20042;-18
2022/12/21 10:58:04;;;;;;;56.33;31.08;;;6.30;77.30;;;;;;4938256;29;20508;-15
2022/12/21 11:00:33;;;;;;;63.63;30.75;;;6.30;77.20;;;;;;4937066;29;20456;-17
2022/12/21 11:03:02;;;;;;;42.10;24.35;;;6.40;77.20;;;;;;4938308;29;20086;-17
2022/12/21 11:05:33;;;;;;;46.30;26.10;;;6.40;77.00;;;;;;4938201;29;20032;-17
2022/12/21 11:08:13;;;;;;;46.35;26.90;;;6.50;77.10;;;;;;4938128;29;20024;-17
2022/12/21 11:10:50;;;;;;;52.85;28.27;;;6.60;77.10;;;;;;4938393;29;20035;-17
2022/12/21 11:13:18;;;;;;;50.63;28.98;;;6.70;77.00;;;;;;4936591;29;20035;-17
2022/12/21 11:16:04;;;;;;;55.10;31.35;;;6.80;76.90;;;;;;4937730;29;20023;-18
2022/12/21 11:18:39;;;;;;;55.33;29.35;;;6.90;76.60;;;;;;4938022;29;20028;-17
2022/12/21 11:21:29;;;;;;;50.03;27.48;;;6.90;76.50;;;;;;4937725;29;20031;-17
2022/12/21 11:23:57;;;;;;;44.78;25.88;;;6.90;76.30;;;;;;4938060;29;20527;-17
2022/12/21 11:26:32;;;;;;;46.70;26.77;;;7.00;76.30;;;;;;4938864;29;20032;-15
2022/12/21 11:29:01;;;;;;;37.30;20.98;;;7.10;76.20;;;;;;4937631;29;20540;-18
2022/12/21 11:31:29;;;;;;;40.72;23.63;;;7.10;76.20;;;;;;4937728;29;20393;-16
2022/12/21 11:33:55;;;;;;;40.22;23.80;;;7.30;75.90;;;;;;4937715;29;20035;-17
2022/12/21 11:36:21;;;;;;;45.85;23.48;;;7.30;75.70;;;;;;4937982;29;20030;-18
2022/12/21 11:38:47;;;;;;;42.90;23.25;;;7.40;75.50;;;;;;4937457;29;20122;-15
2022/12/21 11:41:29;;;;;;;46.03;26.55;;;7.50;75.40;;;;;;4937592;29;20024;-17
2022/12/21 11:43:56;;;;;;;46.50;26.75;;;7.60;75.30;;;;;;4937818;29;20038;-17
2022/12/21 11:47:01;;;;;;;45.65;25.35;;;7.60;75.10;;;;;;4937474;29;20039;-16
2022/12/21 11:49:37;;;;;;;45.85;24.92;;;7.60;74.80;;;;;;4879074;29;20043;-16
2022/12/21 11:52:40;;;;;;;42.95;24.95;;;7.60;74.90;;;;;;4878694;29;20516;-16
2022/12/21 11:55:25;;;;;;;45.35;25.08;;;7.60;74.80;;;;;;4878602;29;21168;-17
2022/12/21 11:58:09;;;;;;;44.35;24.63;;;7.70;74.60;;;;;;4879021;29;20074;-15
2022/12/21 12:00:46;;;;;;;;;;;7.70;74.50;;;;;;4879137;29;20033;-18
2022/12/21 12:03:33;;;;;;;53.83;30.42;;;7.80;73.70;;;;;;4878314;29;19907;-15
2022/12/21 12:06:18;;;;;;;52.28;27.35;;;7.80;74.20;;;;;;4878516;29;20039;-15
2022/12/21 12:09:17;;;;;;;40.50;23.88;;;7.80;74.20;;;;;;4878483;29;20033;-12
2022/12/21 12:11:54;;;;;;;60.22;30.13;;;7.80;74.20;;;;;;4878327;29;20033;-14
2022/12/21 12:14:29;;;;;;;50.05;29.73;;;7.90;74.30;;;;;;4878399;29;20037;-15
2022/12/21 12:17:17;;;;;;;46.13;27.65;;;7.90;73.80;;;;;;4878156;29;20025;-15
2022/12/21 12:19:55;;;;;;;49.45;32.13;;;7.90;73.90;;;;;;4896041;29;20035;-15
2022/12/21 12:22:33;;;;;;;48.78;28.40;;;7.90;73.80;;;;;;4936768;29;20100;-15
2022/12/21 12:25:14;;;;;;;48.42;28.83;;;7.90;73.60;;;;;;4936646;29;20119;-15
2022/12/21 12:28:06;;;;;;;47.10;27.88;;;8.00;73.70;;;;;;4936113;29;20032;-15
2022/12/21 12:30:37;;;;;;;42.63;26.25;;;8.00;73.90;;;;;;4937381;29;20055;-15
2022/12/21 12:33:42;;;;;;;44.15;25.08;;;8.00;73.80;;;;;;4936529;29;20031;-16
2022/12/21 12:36:24;;;;;;;54.95;28.67;;;8.10;73.70;;;;;;4936924;29;20058;-14
2022/12/21 12:39:02;;;;;;;37.20;23.75;;;8.10;73.50;;;;;;4936441;29;20394;-14
2022/12/21 12:41:43;;;;;;;41.65;24.50;;;8.10;73.40;;;;;;4936997;29;20034;-14
2022/12/21 12:44:36;;;;;;;44.65;26.38;;;8.10;73.70;;;;;;4936585;29;20047;-16
2022/12/21 12:47:24;;;;;;;45.05;26.98;;;8.10;73.70;;;;;;4936445;29;20024;-15
2022/12/21 12:50:14;;;;;;;43.08;27.27;;;8.10;73.30;;;;;;4936596;29;20396;-16
2022/12/21 12:53:01;;;;;;;71.50;34.15;;;8.20;72.20;;;;;;4936472;29;20066;-14
2022/12/21 12:55:43;;;;;;;64.10;31.52;;;8.20;72.40;;;;;;4936514;29;20043;-16
2022/12/21 12:58:35;;;;;;;57.97;29.73;;;8.10;72.40;;;;;;4936306;29;20058;-15
2022/12/21 13:01:27;;;;;;;46.00;27.75;;;8.00;72.60;;;;;;4936233;29;20032;-15
2022/12/21 13:04:24;;;;;;;40.83;24.85;;;8.00;72.70;;;;;;4928100;29;20032;-15
2022/12/21 13:07:41;;;;;;;40.83;25.05;;;7.90;73.00;;;;;;4935981;29;20388;-18
2022/12/21 13:10:20;;;;;;;40.60;23.45;;;7.90;72.70;;;;;;4911223;29;20071;-15